Time;durP1;ratioP1;P1;durP2;ratioP2;P2;SDS_P1;SDS_P2;PMS_P1;PMS_P2;Temp;Humidity;BMP_temperature;BMP_pressure;BME280_temperature;BME280_humidity;BME280_pressure;Samples;Min_cycle;Max_cycle;Signal;HPM_P1;HPM_P2
2023/12/09 00:02:47;;;;;;;11.43;4.60;;;6.90;99.90;;;;;;7342268;32;20559;-57
2023/12/09 00:06:49;;;;;;;9.15;4.20;;;7.00;99.90;;;;;;7349774;32;20230;-57
2023/12/09 00:10:51;;;;;;;13.15;4.47;;;6.90;99.90;;;;;;7342934;32;20159;-57
2023/12/09 00:14:53;;;;;;;10.63;4.68;;;6.90;99.90;;;;;;7342857;32;20159;-57
2023/12/09 00:18:55;;;;;;;12.37;5.07;;;6.90;99.90;;;;;;7348550;32;20262;-57
2023/12/09 00:22:57;;;;;;;7.32;3.85;;;6.90;99.90;;;;;;7349974;32;21726;-57
2023/12/09 00:26:58;;;;;;;10.23;4.70;;;6.90;99.90;;;;;;7352666;32;20164;-56
2023/12/09 00:31:00;;;;;;;12.90;4.50;;;6.90;99.90;;;;;;7349630;32;20162;-56
2023/12/09 00:35:02;;;;;;;13.38;4.32;;;6.90;99.90;;;;;;7341208;32;20533;-56
2023/12/09 00:39:05;;;;;;;10.15;4.07;;;6.80;99.90;;;;;;7352799;32;20225;-56
2023/12/09 00:43:07;;;;;;;8.75;3.92;;;6.80;99.90;;;;;;7349813;32;20099;-57
2023/12/09 00:47:09;;;;;;;9.75;3.83;;;6.70;99.90;;;;;;7346596;32;20209;-56
2023/12/09 00:51:10;;;;;;;11.02;3.60;;;6.70;99.90;;;;;;7349359;32;20138;-57
2023/12/09 00:55:12;;;;;;;10.40;4.30;;;6.80;99.90;;;;;;7352506;32;20125;-57
2023/12/09 00:59:14;;;;;;;13.02;4.68;;;6.70;99.90;;;;;;7351012;32;20145;-56
2023/12/09 01:03:15;;;;;;;10.15;3.58;;;6.70;99.90;;;;;;7348924;32;20600;-56
2023/12/09 01:07:17;;;;;;;7.35;3.53;;;6.70;99.90;;;;;;7352509;32;20554;-56
2023/12/09 01:11:19;;;;;;;10.05;3.58;;;6.60;99.90;;;;;;7352068;32;20245;-57
2023/12/09 01:15:21;;;;;;;7.05;3.75;;;6.50;99.90;;;;;;7347089;32;20882;-57
2023/12/09 01:19:23;;;;;;;8.35;3.78;;;6.40;99.90;;;;;;7343810;32;20174;-56
2023/12/09 01:23:25;;;;;;;11.07;3.50;;;6.40;99.90;;;;;;7353728;32;20198;-57
2023/12/09 01:27:27;;;;;;;13.57;4.10;;;6.40;99.90;;;;;;7351865;32;20103;-58
2023/12/09 01:31:32;;;;;;;11.43;4.30;;;6.20;99.90;;;;;;7346284;32;20107;-57
2023/12/09 01:35:34;;;;;;;8.20;3.15;;;6.20;99.90;;;;;;7347757;32;20107;-56
2023/12/09 01:39:38;;;;;;;11.30;3.72;;;6.30;99.90;;;;;;7353302;32;20221;-56
2023/12/09 01:43:40;;;;;;;10.60;3.28;;;6.30;99.90;;;;;;7351238;32;20237;-56
2023/12/09 01:47:42;;;;;;;12.07;3.67;;;6.40;99.90;;;;;;7347233;32;20100;-56
2023/12/09 01:51:44;;;;;;;7.68;2.50;;;6.30;99.90;;;;;;7348004;32;20122;-56
2023/12/09 01:55:47;;;;;;;13.95;3.70;;;6.30;99.90;;;;;;7346154;32;20130;-57
2023/12/09 01:59:48;;;;;;;8.90;3.53;;;6.20;99.90;;;;;;7347243;32;20838;-57
2023/12/09 02:03:51;;;;;;;9.63;3.00;;;6.20;99.90;;;;;;7349097;32;20441;-56
2023/12/09 02:07:53;;;;;;;7.97;2.97;;;6.30;99.90;;;;;;7349216;32;20501;-56
2023/12/09 02:12:30;;;;;;;10.77;2.90;;;6.40;99.90;;;;;;7347157;32;20451;-56
2023/12/09 02:16:51;;;;;;;10.40;3.30;;;6.40;99.90;;;;;;7349913;32;20091;-57
2023/12/09 02:20:53;;;;;;;10.82;2.80;;;6.40;99.90;;;;;;7348480;32;20125;-56
2023/12/09 02:24:56;;;;;;;13.88;2.72;;;6.40;99.90;;;;;;7349975;32;20217;-57
2023/12/09 02:29:05;;;;;;;7.07;2.92;;;6.50;99.90;;;;;;7349321;32;20152;-56
2023/12/09 02:33:08;;;;;;;7.65;2.83;;;6.30;99.90;;;;;;7348665;32;20537;-57
2023/12/09 02:37:12;;;;;;;11.95;3.17;;;6.20;99.90;;;;;;7350521;32;21944;-57
2023/12/09 02:41:16;;;;;;;13.52;2.78;;;6.20;99.90;;;;;;7346531;32;20243;-56
2023/12/09 02:45:19;;;;;;;7.43;2.60;;;6.20;99.90;;;;;;7351390;32;20103;-56
2023/12/09 02:49:21;;;;;;;13.40;3.08;;;6.10;99.90;;;;;;7349880;32;20429;-57
2023/12/09 02:53:23;;;;;;;10.82;3.35;;;6.10;99.90;;;;;;7348851;32;20177;-57
2023/12/09 02:57:25;;;;;;;8.90;2.85;;;5.90;99.90;;;;;;7345631;32;20215;-56
2023/12/09 03:01:27;;;;;;;7.25;2.95;;;5.80;99.90;;;;;;7348897;32;20196;-56
2023/12/09 03:05:28;;;;;;;9.20;3.30;;;5.70;99.90;;;;;;7348963;32;20178;-57
2023/12/09 03:09:30;;;;;;;13.98;3.22;;;5.70;99.90;;;;;;7348744;32;20190;-57
2023/12/09 03:13:32;;;;;;;10.55;3.00;;;5.80;99.90;;;;;;7346800;32;20118;-56
2023/12/09 03:17:34;;;;;;;11.73;2.80;;;5.80;99.90;;;;;;7346846;32;20339;-56
2023/12/09 03:21:37;;;;;;;11.02;3.53;;;5.80;99.90;;;;;;7347830;32;20201;-57
2023/12/09 03:25:38;;;;;;;13.23;3.28;;;5.90;99.90;;;;;;7345176;32;20122;-57
2023/12/09 03:29:40;;;;;;;8.88;3.15;;;5.80;99.90;;;;;;7350387;32;20501;-58
2023/12/09 03:33:42;;;;;;;14.38;3.40;;;5.80;99.90;;;;;;7348790;32;20119;-57
2023/12/09 03:37:44;;;;;;;8.13;2.85;;;5.80;99.90;;;;;;7344300;32;20130;-56
2023/12/09 03:41:46;;;;;;;12.27;2.80;;;5.80;99.90;;;;;;7346016;32;20242;-56
2023/12/09 03:45:47;;;;;;;9.60;2.92;;;5.70;99.90;;;;;;7346047;32;20264;-56
2023/12/09 03:49:49;;;;;;;12.25;3.35;;;5.70;99.90;;;;;;7347557;32;20111;-57
2023/12/09 03:53:51;;;;;;;13.55;2.90;;;5.60;99.90;;;;;;7343292;32;20541;-57
2023/12/09 03:57:53;;;;;;;14.60;3.05;;;5.80;99.90;;;;;;7348969;32;20143;-56
2023/12/09 04:01:54;;;;;;;7.43;2.92;;;5.70;99.90;;;;;;7347590;32;20126;-56
2023/12/09 04:06:01;;;;;;;9.10;2.40;;;5.70;99.90;;;;;;7350796;32;20285;-57
2023/12/09 04:10:03;;;;;;;13.32;2.62;;;5.70;99.90;;;;;;7347983;32;20174;-57
2023/12/09 04:14:05;;;;;;;8.07;2.75;;;5.60;99.90;;;;;;7341348;32;20287;-55
2023/12/09 04:18:07;;;;;;;11.32;2.72;;;5.70;99.90;;;;;;7345212;32;20261;-57
2023/12/09 04:22:09;;;;;;;10.23;2.78;;;5.70;99.90;;;;;;7345475;32;20527;-57
2023/12/09 04:26:10;;;;;;;9.52;2.87;;;5.70;99.90;;;;;;7347939;32;20103;-57
2023/12/09 04:30:12;;;;;;;8.80;2.85;;;5.80;99.90;;;;;;7344725;32;20785;-57
2023/12/09 04:34:14;;;;;;;11.50;3.17;;;5.90;99.90;;;;;;7343456;32;20110;-57
2023/12/09 04:38:16;;;;;;;10.02;2.47;;;5.90;99.90;;;;;;7351753;32;20134;-57
2023/12/09 04:42:19;;;;;;;9.70;3.15;;;5.80;99.90;;;;;;7341037;32;20152;-56
2023/12/09 04:46:21;;;;;;;13.65;3.30;;;5.70;99.90;;;;;;7346005;32;20183;-55
2023/12/09 04:50:23;;;;;;;7.22;2.50;;;5.60;99.90;;;;;;7341155;32;20191;-56
2023/12/09 04:54:24;;;;;;;8.70;2.75;;;5.70;99.90;;;;;;7344947;32;20143;-56
2023/12/09 04:58:26;;;;;;;10.98;3.00;;;5.60;99.90;;;;;;7349560;32;20876;-57
2023/12/09 05:02:28;;;;;;;6.50;2.45;;;5.60;99.90;;;;;;7348292;32;20135;-57
2023/12/09 05:06:30;;;;;;;12.68;3.12;;;5.60;99.90;;;;;;7351239;32;20115;-56
2023/12/09 05:10:32;;;;;;;12.80;3.10;;;5.60;99.90;;;;;;7353979;32;20129;-56
2023/12/09 05:14:33;;;;;;;10.20;3.12;;;5.50;99.90;;;;;;7356993;32;20160;-55
2023/12/09 05:18:35;;;;;;;8.80;2.55;;;5.60;99.90;;;;;;7353517;32;20171;-55
2023/12/09 05:22:37;;;;;;;11.02;3.25;;;5.60;99.90;;;;;;7354623;32;20189;-56
2023/12/09 05:26:39;;;;;;;6.32;3.03;;;5.50;99.90;;;;;;7355112;32;20253;-57
2023/12/09 05:30:42;;;;;;;10.48;3.20;;;5.50;99.90;;;;;;7357198;32;20179;-56
2023/12/09 05:34:44;;;;;;;11.93;3.45;;;5.40;99.90;;;;;;7356375;32;20291;-56
2023/12/09 05:38:45;;;;;;;8.68;3.30;;;5.40;99.90;;;;;;7351722;32;20473;-56
2023/12/09 05:42:47;;;;;;;9.55;3.53;;;5.40;99.90;;;;;;7345917;32;20261;-56
2023/12/09 05:46:49;;;;;;;8.07;3.62;;;5.40;99.90;;;;;;7343802;32;20261;-57
2023/12/09 05:50:51;;;;;;;8.52;3.42;;;5.30;99.90;;;;;;7353619;32;20224;-57
2023/12/09 05:54:53;;;;;;;11.95;3.45;;;5.30;99.90;;;;;;7348570;32;20561;-56
2023/12/09 05:58:55;;;;;;;9.68;3.87;;;5.30;99.90;;;;;;7346466;32;20202;-56
2023/12/09 06:02:56;;;;;;;11.00;3.70;;;5.30;99.90;;;;;;7347356;32;20254;-57
2023/12/09 06:06:58;;;;;;;8.80;3.40;;;5.30;99.90;;;;;;7351317;32;20111;-58
2023/12/09 06:11:00;;;;;;;10.70;3.50;;;5.20;99.90;;;;;;7344227;32;20131;-56
2023/12/09 06:15:02;;;;;;;8.23;3.75;;;5.20;99.90;;;;;;7345132;32;20178;-56
2023/12/09 06:19:04;;;;;;;11.27;3.72;;;5.30;99.90;;;;;;7348737;32;20103;-56
2023/12/09 06:23:06;;;;;;;9.75;3.70;;;5.30;99.90;;;;;;7341739;32;20228;-55
2023/12/09 06:27:07;;;;;;;9.63;3.33;;;5.30;99.90;;;;;;7348801;32;20296;-56
2023/12/09 06:31:12;;;;;;;9.80;3.25;;;5.30;99.90;;;;;;7343153;32;20335;-57
2023/12/09 06:35:14;;;;;;;9.00;2.85;;;5.50;99.90;;;;;;7346338;32;20345;-57
2023/12/09 06:39:15;;;;;;;10.45;2.47;;;5.60;99.90;;;;;;7349724;32;20735;-56
2023/12/09 06:43:17;;;;;;;7.30;2.35;;;5.70;99.90;;;;;;7344859;32;20134;-57
2023/12/09 06:47:19;;;;;;;7.80;2.15;;;5.80;99.90;;;;;;7346431;32;20216;-56
2023/12/09 06:51:20;;;;;;;6.05;2.08;;;5.80;99.90;;;;;;7349941;32;20439;-57
2023/12/09 06:55:22;;;;;;;4.45;2.00;;;5.90;99.90;;;;;;7346423;32;20104;-57
2023/12/09 06:59:25;;;;;;;7.65;3.05;;;5.90;99.90;;;;;;7346818;32;20107;-57
2023/12/09 07:03:27;;;;;;;6.53;2.40;;;5.90;99.90;;;;;;7342731;32;20624;-56
2023/12/09 07:07:29;;;;;;;6.50;1.98;;;5.90;99.90;;;;;;7346716;32;20472;-57
2023/12/09 07:11:32;;;;;;;3.80;1.60;;;5.90;99.90;;;;;;7340519;32;20234;-57
2023/12/09 07:15:34;;;;;;;4.53;1.50;;;5.90;99.90;;;;;;7345437;32;20126;-56
2023/12/09 07:19:36;;;;;;;7.43;1.65;;;5.90;99.90;;;;;;7347361;32;20130;-57
2023/12/09 07:23:38;;;;;;;5.00;1.50;;;5.80;99.90;;;;;;7348082;32;20621;-57
2023/12/09 07:27:39;;;;;;;5.22;1.73;;;5.80;99.90;;;;;;7347164;32;20563;-57
2023/12/09 07:31:41;;;;;;;3.25;1.20;;;5.90;99.90;;;;;;7344457;32;20161;-55
2023/12/09 07:35:43;;;;;;;4.72;1.52;;;6.00;99.90;;;;;;7342185;32;20175;-56
2023/12/09 07:39:45;;;;;;;5.65;1.42;;;5.90;99.90;;;;;;7345965;32;20115;-57
2023/12/09 07:43:46;;;;;;;4.30;1.52;;;6.00;99.90;;;;;;7350096;32;20600;-56
2023/12/09 07:47:48;;;;;;;6.18;1.35;;;6.00;99.90;;;;;;7346011;32;20214;-56
2023/12/09 07:51:50;;;;;;;3.75;1.30;;;6.00;99.90;;;;;;7347383;32;20141;-56
2023/12/09 07:55:52;;;;;;;5.22;1.75;;;6.10;99.90;;;;;;7337243;32;20427;-57
2023/12/09 07:59:53;;;;;;;5.70;1.40;;;6.10;99.90;;;;;;7344224;32;20133;-56
2023/12/09 08:03:55;;;;;;;5.80;1.52;;;6.20;99.90;;;;;;7346443;32;20166;-55
2023/12/09 08:07:57;;;;;;;6.32;1.73;;;6.30;99.90;;;;;;7342986;32;20334;-56
2023/12/09 08:11:59;;;;;;;5.50;1.40;;;6.30;99.90;;;;;;7342860;32;20158;-57
2023/12/09 08:16:01;;;;;;;7.87;1.30;;;6.40;99.90;;;;;;7345995;32;20174;-55
2023/12/09 08:20:06;;;;;;;7.75;1.50;;;6.50;99.90;;;;;;7346892;32;20248;-54
2023/12/09 08:24:08;;;;;;;3.62;1.12;;;6.50;99.90;;;;;;7342668;32;20216;-55
2023/12/09 08:28:10;;;;;;;8.45;1.55;;;6.70;99.90;;;;;;7346991;32;20119;-56
2023/12/09 08:32:12;;;;;;;6.75;1.40;;;6.60;99.90;;;;;;7340349;32;20112;-57
2023/12/09 08:36:16;;;;;;;9.88;1.52;;;6.80;99.90;;;;;;7348844;32;20210;-56
2023/12/09 08:40:18;;;;;;;6.93;1.20;;;6.80;99.90;;;;;;7335724;32;20640;-57
2023/12/09 08:44:20;;;;;;;4.05;1.30;;;6.90;99.90;;;;;;7343177;32;20242;-55
2023/12/09 08:48:23;;;;;;;7.95;1.35;;;6.90;99.90;;;;;;7349963;32;20375;-57
2023/12/09 08:52:25;;;;;;;4.12;1.45;;;6.90;99.90;;;;;;7348843;32;20099;-56
2023/12/09 08:56:27;;;;;;;3.45;1.48;;;7.00;99.90;;;;;;7350562;32;20119;-56
2023/12/09 09:00:30;;;;;;;5.62;1.35;;;7.00;99.90;;;;;;7350966;32;20247;-57
2023/12/09 09:04:31;;;;;;;6.80;1.70;;;7.10;99.90;;;;;;7343972;32;20287;-56
2023/12/09 09:08:33;;;;;;;7.93;1.60;;;7.30;99.90;;;;;;7351085;32;20107;-58
2023/12/09 09:12:35;;;;;;;6.55;1.48;;;7.30;99.90;;;;;;7344756;32;20210;-55
2023/12/09 09:16:37;;;;;;;5.70;1.77;;;7.40;99.90;;;;;;7347688;32;20234;-55
2023/12/09 09:20:42;;;;;;;6.12;1.45;;;7.40;99.90;;;;;;7346440;32;20484;-55
2023/12/09 09:24:47;;;;;;;6.15;2.35;;;7.40;99.90;;;;;;7348284;32;20131;-56
2023/12/09 09:28:48;;;;;;;5.95;1.30;;;7.50;99.90;;;;;;7351962;32;20726;-58
2023/12/09 09:32:51;;;;;;;5.18;1.50;;;7.60;99.90;;;;;;7345720;32;20217;-55
2023/12/09 09:36:53;;;;;;;5.97;1.58;;;7.60;99.90;;;;;;7350895;32;21045;-56
2023/12/09 09:40:55;;;;;;;7.10;1.60;;;7.70;99.90;;;;;;7349594;32;20564;-55
2023/12/09 09:45:12;;;;;;;12.43;1.83;;;7.70;99.90;;;;;;7352540;32;20141;-56
2023/12/09 09:49:16;;;;;;;8.07;1.70;;;7.70;99.90;;;;;;7348357;32;20108;-57
2023/12/09 09:53:30;;;;;;;7.50;1.70;;;7.70;99.90;;;;;;7347808;32;20241;-58
2023/12/09 09:57:32;;;;;;;14.15;2.28;;;7.80;99.90;;;;;;7342297;32;20261;-57
2023/12/09 10:01:37;;;;;;;7.68;1.70;;;7.90;99.90;;;;;;7346850;32;20219;-56
2023/12/09 10:05:39;;;;;;;9.07;2.00;;;7.80;99.90;;;;;;7350137;32;20278;-57
2023/12/09 10:09:40;;;;;;;5.00;1.33;;;7.90;99.90;;;;;;7343857;32;20170;-56
2023/12/09 10:13:46;;;;;;;10.73;1.83;;;7.90;99.90;;;;;;7346092;32;20127;-56
2023/12/09 10:17:48;;;;;;;6.75;1.65;;;7.90;99.90;;;;;;7348916;32;20557;-58
2023/12/09 10:21:49;;;;;;;13.18;1.70;;;7.90;99.90;;;;;;7351232;32;20107;-58
2023/12/09 10:25:51;;;;;;;9.75;1.48;;;7.80;99.90;;;;;;7347788;32;20367;-57
2023/12/09 10:29:55;;;;;;;12.07;1.83;;;7.90;99.90;;;;;;7347401;32;20253;-57
2023/12/09 10:33:57;;;;;;;10.52;1.92;;;7.90;99.90;;;;;;7344715;32;20159;-62
2023/12/09 10:38:01;;;;;;;9.98;1.92;;;8.00;99.90;;;;;;7348344;32;20612;-62
2023/12/09 10:42:04;;;;;;;7.18;1.37;;;8.30;99.90;;;;;;7347758;32;20601;-57
2023/12/09 10:46:06;;;;;;;6.53;1.65;;;8.50;99.90;;;;;;7349951;32;20482;-57
2023/12/09 10:50:09;;;;;;;7.05;1.30;;;8.40;99.90;;;;;;7347641;32;20119;-58
2023/12/09 10:54:11;;;;;;;8.18;1.92;;;8.30;99.90;;;;;;7340911;32;20248;-57
2023/12/09 10:58:14;;;;;;;8.68;1.67;;;8.30;99.90;;;;;;7348067;32;20547;-57
2023/12/09 11:02:18;;;;;;;9.10;1.62;;;8.40;99.90;;;;;;7349314;32;20190;-57
2023/12/09 11:06:23;;;;;;;6.95;1.37;;;8.30;99.90;;;;;;7346202;32;20209;-57
2023/12/09 11:10:25;;;;;;;8.27;1.52;;;8.30;99.90;;;;;;7340404;32;20142;-57
2023/12/09 11:14:27;;;;;;;7.12;1.62;;;8.30;99.90;;;;;;7344773;32;20138;-57
2023/12/09 11:18:29;;;;;;;6.60;1.42;;;8.30;99.90;;;;;;7344325;32;20402;-57
2023/12/09 11:22:31;;;;;;;9.32;1.50;;;8.20;99.90;;;;;;7340499;32;20253;-57
2023/12/09 11:26:33;;;;;;;4.82;1.10;;;8.30;99.90;;;;;;7341063;32;20159;-57
2023/12/09 11:30:46;;;;;;;6.37;1.35;;;8.40;99.90;;;;;;7344771;32;20600;-57
2023/12/09 11:34:48;;;;;;;9.27;1.73;;;8.30;99.90;;;;;;7345112;32;20108;-57
2023/12/09 11:38:50;;;;;;;8.85;1.35;;;8.30;99.90;;;;;;7339297;32;20126;-58
2023/12/09 11:42:53;;;;;;;7.32;1.40;;;8.30;99.90;;;;;;7343138;32;20213;-57
2023/12/09 11:46:55;;;;;;;5.93;1.42;;;8.30;99.90;;;;;;7343627;32;20171;-57
2023/12/09 11:50:56;;;;;;;9.63;1.65;;;8.30;99.90;;;;;;7344073;32;20172;-57
2023/12/09 11:55:04;;;;;;;10.73;1.25;;;8.40;99.90;;;;;;7348866;32;20163;-59
2023/12/09 11:59:06;;;;;;;8.23;1.73;;;8.50;99.90;;;;;;7344311;32;20140;-56
2023/12/09 12:03:08;;;;;;;8.90;1.58;;;8.50;99.90;;;;;;7346122;32;20115;-57
2023/12/09 12:07:10;;;;;;;11.68;2.30;;;8.40;99.90;;;;;;7342702;32;20576;-56
2023/12/09 12:11:12;;;;;;;11.60;2.25;;;8.40;99.90;;;;;;7346381;32;20107;-57
2023/12/09 12:15:14;;;;;;;11.52;2.40;;;8.40;99.90;;;;;;7346895;32;20170;-57
2023/12/09 12:19:16;;;;;;;9.98;1.85;;;8.50;99.90;;;;;;7345499;32;20123;-56
2023/12/09 12:23:18;;;;;;;9.23;1.27;;;8.50;99.90;;;;;;7351516;32;20222;-57
2023/12/09 12:27:35;;;;;;;13.88;1.67;;;8.60;99.90;;;;;;7354889;32;21903;-56
2023/12/09 12:31:37;;;;;;;10.80;1.70;;;8.70;99.90;;;;;;7353203;32;20221;-57
2023/12/09 12:35:38;;;;;;;9.60;1.50;;;8.60;99.90;;;;;;7355904;32;20163;-57
2023/12/09 12:39:41;;;;;;;6.70;1.42;;;8.80;99.90;;;;;;7351624;32;20111;-57
2023/12/09 12:43:43;;;;;;;7.97;1.58;;;8.80;99.90;;;;;;7349986;32;20110;-56
2023/12/09 12:47:45;;;;;;;9.55;1.60;;;8.90;99.90;;;;;;7351505;32;20259;-57
2023/12/09 12:51:49;;;;;;;5.85;1.58;;;8.80;99.90;;;;;;7350347;32;20266;-57
2023/12/09 12:55:54;;;;;;;8.38;1.33;;;8.90;99.90;;;;;;7351725;32;20214;-57
2023/12/09 12:59:56;;;;;;;8.07;1.80;;;8.70;99.90;;;;;;7349302;32;20197;-57
2023/12/09 13:04:09;;;;;;;7.97;1.40;;;8.70;99.90;;;;;;7354798;32;20139;-57
2023/12/09 13:08:11;;;;;;;4.68;1.23;;;8.50;99.90;;;;;;7352213;32;20445;-57
2023/12/09 13:12:13;;;;;;;6.60;1.12;;;8.40;99.90;;;;;;7355534;32;20123;-57
2023/12/09 13:16:16;;;;;;;5.90;1.75;;;8.30;99.90;;;;;;7347677;32;20167;-56
2023/12/09 13:20:17;;;;;;;7.82;1.10;;;8.20;99.90;;;;;;7347676;32;20142;-60
2023/12/09 13:24:19;;;;;;;6.00;1.40;;;8.30;99.90;;;;;;7346768;32;20220;-58
2023/12/09 13:28:21;;;;;;;6.05;1.30;;;8.30;99.90;;;;;;7353110;32;20135;-58
2023/12/09 13:32:23;;;;;;;8.70;1.30;;;8.20;99.90;;;;;;7346325;32;20624;-58
2023/12/09 13:36:25;;;;;;;3.45;1.50;;;8.00;99.90;;;;;;7340693;32;20103;-58
2023/12/09 13:40:27;;;;;;;9.23;1.77;;;8.10;99.90;;;;;;7351276;32;20326;-57
2023/12/09 13:44:28;;;;;;;9.60;1.95;;;8.00;99.90;;;;;;7347093;32;20490;-58
2023/12/09 13:48:31;;;;;;;7.50;2.28;;;7.90;99.90;;;;;;7342919;32;20578;-59
2023/12/09 13:52:34;;;;;;;8.35;2.33;;;7.80;99.90;;;;;;7344507;32;20221;-58
2023/12/09 13:56:36;;;;;;;7.75;2.28;;;7.70;99.90;;;;;;7347338;32;20494;-57
2023/12/09 14:00:41;;;;;;;6.87;2.40;;;7.70;99.90;;;;;;7344524;32;20213;-58
2023/12/09 14:04:44;;;;;;;6.07;2.08;;;7.60;99.90;;;;;;7341672;32;20841;-59
2023/12/09 14:08:46;;;;;;;5.78;1.95;;;7.70;99.90;;;;;;7341731;32;20226;-60
2023/12/09 14:12:48;;;;;;;6.93;2.10;;;7.80;99.90;;;;;;7347932;32;20169;-59
2023/12/09 14:16:50;;;;;;;6.70;2.30;;;7.80;99.90;;;;;;7343669;32;20832;-58
2023/12/09 14:20:52;;;;;;;7.82;2.37;;;7.60;99.90;;;;;;7345254;32;20165;-59
2023/12/09 14:24:54;;;;;;;7.40;2.03;;;7.50;99.90;;;;;;7343667;32;20126;-58
2023/12/09 14:28:56;;;;;;;10.48;2.42;;;7.30;99.90;;;;;;7342501;32;20170;-59
2023/12/09 14:32:58;;;;;;;6.35;2.40;;;7.20;99.90;;;;;;7344252;32;20155;-59
2023/12/09 14:37:00;;;;;;;6.62;1.80;;;7.10;99.90;;;;;;7348817;32;20635;-59
2023/12/09 14:41:02;;;;;;;7.78;2.35;;;7.10;99.90;;;;;;7345529;32;20239;-58
2023/12/09 14:45:04;;;;;;;4.60;1.85;;;7.10;99.90;;;;;;7344483;32;20229;-58
2023/12/09 14:49:06;;;;;;;5.15;1.80;;;7.00;99.90;;;;;;7345027;32;20131;-59
2023/12/09 14:53:11;;;;;;;7.95;2.10;;;6.90;99.90;;;;;;7342951;32;20099;-60
2023/12/09 14:57:13;;;;;;;7.80;2.00;;;6.90;99.90;;;;;;7340057;32;20131;-58
2023/12/09 15:01:16;;;;;;;9.88;1.98;;;6.90;99.90;;;;;;7341225;32;20115;-58
2023/12/09 15:05:18;;;;;;;5.68;1.75;;;6.80;99.90;;;;;;7344312;32;20123;-57
2023/12/09 15:09:20;;;;;;;2.08;1.45;;;6.80;99.90;;;;;;7347293;32;20276;-57
2023/12/09 15:13:22;;;;;;;4.72;1.98;;;6.80;99.90;;;;;;7342568;32;20106;-57
2023/12/09 15:17:25;;;;;;;8.00;1.90;;;6.80;99.90;;;;;;7343636;32;20150;-57
2023/12/09 15:21:26;;;;;;;8.98;1.95;;;6.70;99.90;;;;;;7340944;32;20137;-57
2023/12/09 15:25:29;;;;;;;5.10;1.60;;;6.80;99.90;;;;;;7344443;32;20185;-57
2023/12/09 15:29:30;;;;;;;2.55;1.58;;;6.70;99.90;;;;;;7345888;32;20187;-57
2023/12/09 15:33:32;;;;;;;4.37;1.62;;;6.60;99.90;;;;;;7341668;32;20228;-57
2023/12/09 15:37:34;;;;;;;4.62;1.40;;;6.60;99.90;;;;;;7348572;32;20910;-56
2023/12/09 15:41:36;;;;;;;2.03;1.10;;;6.60;99.90;;;;;;7346982;32;20585;-57
2023/12/09 15:45:38;;;;;;;4.62;1.27;;;6.60;99.90;;;;;;7345144;32;20107;-58
2023/12/09 15:49:40;;;;;;;3.95;1.27;;;6.50;99.90;;;;;;7345116;32;20628;-58
2023/12/09 15:53:42;;;;;;;2.25;1.25;;;6.50;99.90;;;;;;7344244;32;20126;-56
2023/12/09 15:57:44;;;;;;;3.30;1.10;;;6.40;99.90;;;;;;7343091;32;20115;-57
2023/12/09 16:01:46;;;;;;;4.95;1.10;;;6.40;99.90;;;;;;7340685;32;20214;-57
2023/12/09 16:05:48;;;;;;;3.78;0.90;;;6.40;99.90;;;;;;7342864;32;20095;-57
2023/12/09 16:09:51;;;;;;;1.90;0.80;;;6.50;99.90;;;;;;7347607;32;20733;-57
2023/12/09 16:13:58;;;;;;;3.03;1.10;;;6.50;99.90;;;;;;7348366;32;20262;-58
2023/12/09 16:18:00;;;;;;;1.75;0.75;;;6.40;99.90;;;;;;7348523;32;20245;-57
2023/12/09 16:22:02;;;;;;;1.17;0.70;;;6.40;99.90;;;;;;7349989;32;20167;-57
2023/12/09 16:26:05;;;;;;;1.87;0.98;;;6.50;99.90;;;;;;7349927;32;20610;-57
2023/12/09 16:30:07;;;;;;;3.00;0.98;;;6.50;99.90;;;;;;7344845;32;20183;-57
2023/12/09 16:34:09;;;;;;;1.95;1.10;;;6.50;99.90;;;;;;7345422;32;20214;-57
2023/12/09 16:38:11;;;;;;;1.42;0.80;;;6.50;99.90;;;;;;7348752;32;20137;-57
2023/12/09 16:42:13;;;;;;;1.75;0.90;;;6.50;99.90;;;;;;7347964;32;20127;-56
2023/12/09 16:46:15;;;;;;;1.60;0.70;;;6.50;99.90;;;;;;7349271;32;20503;-57
2023/12/09 16:50:16;;;;;;;2.70;1.05;;;6.50;99.90;;;;;;7343186;32;20115;-58
2023/12/09 16:54:20;;;;;;;2.60;0.90;;;6.50;99.90;;;;;;7340333;32;20854;-58
2023/12/09 16:58:22;;;;;;;1.40;0.80;;;6.50;99.90;;;;;;7340809;32;20133;-57
2023/12/09 17:02:25;;;;;;;2.85;1.10;;;6.50;99.90;;;;;;7343497;32;20106;-55
2023/12/09 17:06:28;;;;;;;1.65;1.00;;;6.50;99.90;;;;;;7348148;32;20512;-55
2023/12/09 17:10:29;;;;;;;1.80;0.88;;;6.60;99.90;;;;;;7347200;32;20127;-54
2023/12/09 17:14:31;;;;;;;2.67;0.80;;;6.50;99.90;;;;;;7350407;32;20533;-55
2023/12/09 17:18:33;;;;;;;2.37;1.25;;;6.50;99.90;;;;;;7345665;32;20503;-55
2023/12/09 17:22:36;;;;;;;3.15;1.05;;;6.50;99.90;;;;;;7352321;32;20221;-55
2023/12/09 17:26:38;;;;;;;1.37;0.98;;;6.60;99.90;;;;;;7347241;32;20249;-56
2023/12/09 17:30:40;;;;;;;2.20;1.08;;;6.60;99.90;;;;;;7347730;32;20216;-56
2023/12/09 17:34:42;;;;;;;2.65;1.08;;;6.60;99.90;;;;;;7346309;32;20222;-56
2023/12/09 17:38:44;;;;;;;1.20;0.80;;;6.60;99.90;;;;;;7349516;32;20123;-57
2023/12/09 17:42:45;;;;;;;2.22;1.00;;;6.60;99.90;;;;;;7351343;32;20134;-55
2023/12/09 17:46:47;;;;;;;2.30;0.93;;;6.70;99.90;;;;;;7346970;32;20111;-55
2023/12/09 17:50:49;;;;;;;3.70;1.30;;;6.70;99.90;;;;;;7350506;32;20195;-55
2023/12/09 17:54:51;;;;;;;2.53;1.00;;;6.80;99.90;;;;;;7347640;32;20268;-55
2023/12/09 17:58:53;;;;;;;2.03;1.30;;;6.80;99.90;;;;;;7348089;32;20122;-55
2023/12/09 18:02:55;;;;;;;4.85;1.40;;;6.80;99.90;;;;;;7347936;32;20485;-54
2023/12/09 18:06:57;;;;;;;3.10;1.20;;;6.80;99.90;;;;;;7339083;32;20168;-56
2023/12/09 18:10:59;;;;;;;1.27;0.93;;;6.80;99.90;;;;;;7347276;32;20129;-57
2023/12/09 18:15:00;;;;;;;1.45;1.02;;;6.90;99.90;;;;;;7344459;32;20176;-55
2023/12/09 18:19:03;;;;;;;3.50;1.00;;;6.90;99.90;;;;;;7348685;32;20180;-55
2023/12/09 18:23:05;;;;;;;3.70;0.90;;;6.80;99.90;;;;;;7347237;32;20186;-54
2023/12/09 18:27:07;;;;;;;2.45;1.30;;;6.80;99.90;;;;;;7346802;32;20167;-58
2023/12/09 18:31:09;;;;;;;1.90;1.10;;;6.90;99.90;;;;;;7348243;32;20198;-56
2023/12/09 18:35:13;;;;;;;1.85;1.20;;;6.90;99.90;;;;;;7339038;32;20218;-56
2023/12/09 18:39:15;;;;;;;2.15;1.20;;;7.00;99.90;;;;;;7345555;32;20308;-55
2023/12/09 18:43:17;;;;;;;1.50;0.98;;;7.00;99.90;;;;;;7343079;32;20130;-57
2023/12/09 18:47:20;;;;;;;1.40;1.00;;;7.20;99.90;;;;;;7345558;32;20183;-57
2023/12/09 18:51:22;;;;;;;2.47;1.30;;;7.10;99.90;;;;;;7344447;32;20120;-57
2023/12/09 18:55:24;;;;;;;1.42;1.20;;;7.10;99.90;;;;;;7343356;32;20199;-57
2023/12/09 18:59:26;;;;;;;2.50;1.70;;;7.20;99.90;;;;;;7348731;32;20497;-57
2023/12/09 19:03:27;;;;;;;2.78;2.05;;;7.20;99.90;;;;;;7348783;32;20134;-57
2023/12/09 19:07:30;;;;;;;2.67;2.10;;;7.20;99.90;;;;;;7346304;32;20167;-58
2023/12/09 19:11:31;;;;;;;5.60;2.30;;;7.20;99.90;;;;;;7347821;32;20114;-58
2023/12/09 19:15:33;;;;;;;3.95;2.45;;;7.20;99.90;;;;;;7347116;32;20123;-58
2023/12/09 19:19:35;;;;;;;2.83;2.53;;;7.30;99.90;;;;;;7348452;32;20108;-58
2023/12/09 19:23:37;;;;;;;3.30;2.47;;;7.20;99.90;;;;;;7348531;32;20178;-59
2023/12/09 19:27:40;;;;;;;4.60;2.83;;;7.30;99.90;;;;;;7346013;32;20160;-57
2023/12/09 19:31:43;;;;;;;5.15;3.10;;;7.30;99.90;;;;;;7345838;32;20209;-54
2023/12/09 19:35:45;;;;;;;4.05;2.90;;;7.30;99.90;;;;;;7345157;32;20434;-56
2023/12/09 19:39:47;;;;;;;2.90;2.50;;;7.30;99.90;;;;;;7347178;32;20214;-65
2023/12/09 19:43:49;;;;;;;5.80;2.37;;;7.60;99.90;;;;;;7344538;32;20119;-56
2023/12/09 19:47:54;;;;;;;4.07;2.40;;;7.60;99.90;;;;;;7343434;32;20258;-56
2023/12/09 19:51:56;;;;;;;2.67;2.30;;;7.60;99.90;;;;;;7347700;32;20108;-55
2023/12/09 19:55:58;;;;;;;5.22;2.83;;;7.70;99.90;;;;;;7349157;32;20217;-56
2023/12/09 20:00:00;;;;;;;5.35;2.95;;;7.80;99.90;;;;;;7342111;32;20163;-57
2023/12/09 20:04:02;;;;;;;5.22;3.67;;;7.70;99.90;;;;;;7344419;32;20129;-57
2023/12/09 20:08:04;;;;;;;3.83;2.40;;;7.90;99.90;;;;;;7345337;32;20163;-56
2023/12/09 20:12:06;;;;;;;4.90;3.10;;;7.90;99.90;;;;;;7341426;32;20198;-55
2023/12/09 20:16:08;;;;;;;3.75;3.35;;;7.90;99.90;;;;;;7343018;32;20237;-56
2023/12/09 20:20:11;;;;;;;7.15;3.22;;;8.00;99.90;;;;;;7342322;32;20727;-56
2023/12/09 20:24:12;;;;;;;5.37;3.30;;;8.30;99.90;;;;;;7343286;32;20115;-55
2023/12/09 20:28:14;;;;;;;6.55;3.78;;;8.50;99.90;;;;;;7335373;32;20127;-55
2023/12/09 20:32:16;;;;;;;11.35;3.58;;;8.50;99.90;;;;;;7343168;32;20159;-56
2023/12/09 20:36:20;;;;;;;9.05;3.30;;;8.60;99.90;;;;;;7341877;32;20137;-55
2023/12/09 20:40:22;;;;;;;12.55;3.10;;;8.70;99.90;;;;;;7346010;32;20208;-55
2023/12/09 20:44:24;;;;;;;13.93;3.55;;;8.80;99.90;;;;;;7353003;32;20133;-55
2023/12/09 20:48:25;;;;;;;15.43;2.83;;;8.90;99.90;;;;;;7350737;32;20130;-55
2023/12/09 20:52:27;;;;;;;19.05;3.15;;;8.90;99.90;;;;;;7350720;32;20593;-56
2023/12/09 20:56:29;;;;;;;15.77;2.60;;;8.90;99.90;;;;;;7351439;32;20127;-56
2023/12/09 21:00:31;;;;;;;21.95;3.47;;;8.90;99.90;;;;;;7350915;32;20987;-55
2023/12/09 21:04:33;;;;;;;15.13;2.47;;;8.90;99.90;;;;;;7349148;32;20913;-65
2023/12/09 21:08:38;;;;;;;20.80;2.47;;;9.20;99.90;;;;;;7352620;32;20143;-55
2023/12/09 21:12:40;;;;;;;19.75;3.20;;;9.00;99.90;;;;;;7339782;32;20212;-54
2023/12/09 21:16:42;;;;;;;24.27;3.65;;;9.00;99.90;;;;;;7340813;32;20274;-56